Time;durP1;ratioP1;P1;durP2;ratioP2;P2;SDS_P1;SDS_P2;PMS_P1;PMS_P2;Temp;Humidity;BMP_temperature;BMP_pressure;BME280_temperature;BME280_humidity;BME280_pressure;Samples;Min_cycle;Max_cycle;Signal;HPM_P1;HPM_P2
2023/04/19 00:00:35;;;;;;;10.13;6.80;;;;;;;;;;5094401;28;20090;-75
2023/04/19 00:03:02;;;;;;;10.93;6.93;;;;;;;;;;5085732;28;20059;-75
2023/04/19 00:05:28;;;;;;;9.30;6.55;;;;;;;;;;5083992;28;20428;-74
2023/04/19 00:07:54;;;;;;;10.10;6.90;;;;;;;;;;5094446;28;20085;-74
2023/04/19 00:10:20;;;;;;;10.63;7.07;;;;;;;;;;5093084;28;20101;-74
2023/04/19 00:12:46;;;;;;;9.70;6.75;;;;;;;;;;5094336;28;20088;-74
2023/04/19 00:15:12;;;;;;;9.98;7.43;;;;;;;;;;5093866;28;20554;-74
2023/04/19 00:17:38;;;;;;;9.55;7.10;;;;;;;;;;5094060;28;20538;-74
2023/04/19 00:20:05;;;;;;;11.75;7.43;;;;;;;;;;5093556;28;20127;-74
2023/04/19 00:22:31;;;;;;;10.50;6.63;;;;;;;;;;5093860;28;20062;-74
2023/04/19 00:24:57;;;;;;;10.32;6.63;;;;;;;;;;5093342;28;20039;-74
2023/04/19 00:27:23;;;;;;;10.98;7.22;;;;;;;;;;5091084;28;20498;-74
2023/04/19 00:29:49;;;;;;;9.75;6.88;;;;;;;;;;5076667;28;20119;-74
2023/04/19 00:32:15;;;;;;;10.52;7.40;;;;;;;;;;5091997;28;20123;-74
2023/04/19 00:34:41;;;;;;;9.50;7.75;;;;;;;;;;5075402;28;20051;-74
2023/04/19 00:37:08;;;;;;;10.02;7.60;;;;;;;;;;5093996;28;20115;-75
2023/04/19 00:39:34;;;;;;;11.30;7.63;;;;;;;;;;5094320;28;20040;-75
2023/04/19 00:42:01;;;;;;;12.10;8.30;;;;;;;;;;5100401;28;20052;-75
2023/04/19 00:44:27;;;;;;;10.95;7.25;;;;;;;;;;5091480;28;20398;-75
2023/04/19 00:46:53;;;;;;;11.95;7.85;;;;;;;;;;5100742;28;20036;-75
2023/04/19 00:49:20;;;;;;;11.88;7.97;;;;;;;;;;5100728;28;20052;-75
2023/04/19 00:51:46;;;;;;;10.30;7.63;;;;;;;;;;5100488;28;20476;-74
2023/04/19 00:54:16;;;;;;;9.70;7.68;;;;;;;;;;5099172;28;20047;-74
2023/04/19 00:56:42;;;;;;;10.38;7.85;;;;;;;;;;5100643;28;20048;-75
2023/04/19 00:59:09;;;;;;;11.63;7.97;;;;;;;;;;5100266;28;20050;-75
2023/04/19 01:01:35;;;;;;;11.95;8.25;;;;;;;;;;5095294;28;20040;-75
2023/04/19 01:04:01;;;;;;;11.45;8.18;;;;;;;;;;5083744;28;20048;-75
2023/04/19 01:06:28;;;;;;;11.68;8.32;;;;;;;;;;5094564;28;20458;-75
2023/04/19 01:08:55;;;;;;;11.00;7.85;;;;;;;;;;5100225;28;20490;-74
2023/04/19 01:11:22;;;;;;;10.18;7.63;;;;;;;;;;5091224;28;20040;-74
2023/04/19 01:13:48;;;;;;;12.52;8.73;;;;;;;;;;5080222;28;20040;-74
2023/04/19 01:16:14;;;;;;;13.30;8.65;;;;;;;;;;5092363;28;20036;-74
2023/04/19 01:18:40;;;;;;;13.40;9.30;;;;;;;;;;5100364;28;20119;-74
2023/04/19 01:21:07;;;;;;;12.48;8.65;;;;;;;;;;5098707;28;20048;-74
2023/04/19 01:23:34;;;;;;;13.27;8.52;;;;;;;;;;5086747;28;20052;-74
2023/04/19 01:26:01;;;;;;;14.52;9.88;;;;;;;;;;5099650;28;20036;-75
2023/04/19 01:28:27;;;;;;;14.32;10.00;;;;;;;;;;5086697;28;20119;-75
2023/04/19 01:30:55;;;;;;;16.08;10.57;;;;;;;;;;5091099;28;20043;-74
2023/04/19 01:33:21;;;;;;;16.08;11.52;;;;;;;;;;5100170;28;20097;-74
2023/04/19 01:35:47;;;;;;;17.05;10.57;;;;;;;;;;5099948;28;20049;-74
2023/04/19 01:38:14;;;;;;;15.30;11.27;;;;;;;;;;5096689;28;20048;-74
2023/04/19 01:40:40;;;;;;;14.98;11.18;;;;;;;;;;5086102;28;20127;-74
2023/04/19 01:43:06;;;;;;;16.58;11.20;;;;;;;;;;5092968;28;20365;-74
2023/04/19 01:45:33;;;;;;;16.02;11.32;;;;;;;;;;5099346;28;20040;-74
2023/04/19 01:48:01;;;;;;;17.83;11.60;;;;;;;;;;5099803;28;20044;-74
2023/04/19 01:50:27;;;;;;;15.50;11.00;;;;;;;;;;5095018;28;20111;-74
2023/04/19 01:52:53;;;;;;;18.70;11.85;;;;;;;;;;5075669;28;20045;-74
2023/04/19 01:55:19;;;;;;;16.65;11.80;;;;;;;;;;5078802;28;20040;-74
2023/04/19 01:57:46;;;;;;;18.63;11.95;;;;;;;;;;5095960;28;20040;-73
2023/04/19 02:00:12;;;;;;;18.67;12.05;;;;;;;;;;5096005;28;20072;-74
2023/04/19 02:02:38;;;;;;;16.23;11.65;;;;;;;;;;5096819;28;20044;-74
2023/04/19 02:05:05;;;;;;;20.55;12.50;;;;;;;;;;5096692;28;20047;-74
2023/04/19 02:07:31;;;;;;;19.40;12.82;;;;;;;;;;5076711;28;20052;-73
2023/04/19 02:09:58;;;;;;;18.08;11.82;;;;;;;;;;5076724;28;20116;-74
2023/04/19 02:12:27;;;;;;;18.42;11.85;;;;;;;;;;5095495;28;20109;-74
2023/04/19 02:14:58;;;;;;;17.58;12.00;;;;;;;;;;5092313;28;20040;-74
2023/04/19 02:17:24;;;;;;;15.73;11.25;;;;;;;;;;5085766;28;20119;-73
2023/04/19 02:19:50;;;;;;;18.17;11.77;;;;;;;;;;5076382;28;20052;-74
2023/04/19 02:22:17;;;;;;;14.85;11.38;;;;;;;;;;5095354;28;21637;-74
2023/04/19 02:24:43;;;;;;;16.02;10.93;;;;;;;;;;5078041;28;20055;-73
2023/04/19 02:27:09;;;;;;;13.95;10.55;;;;;;;;;;5092307;28;20115;-73
2023/04/19 02:29:35;;;;;;;14.07;10.85;;;;;;;;;;5095419;28;20127;-74
2023/04/19 02:32:04;;;;;;;16.20;10.65;;;;;;;;;;5095754;28;20040;-74
2023/04/19 02:34:31;;;;;;;15.48;9.90;;;;;;;;;;5076072;28;20063;-73
2023/04/19 02:36:57;;;;;;;17.15;11.40;;;;;;;;;;5076062;28;20547;-73
2023/04/19 02:39:23;;;;;;;14.65;9.98;;;;;;;;;;5075933;28;20037;-74
2023/04/19 02:41:49;;;;;;;13.75;9.52;;;;;;;;;;5086507;28;20048;-74
2023/04/19 02:44:15;;;;;;;13.60;10.13;;;;;;;;;;5088160;28;20707;-73
2023/04/19 02:46:42;;;;;;;13.45;9.45;;;;;;;;;;5092491;28;20044;-75
2023/04/19 02:49:08;;;;;;;15.48;9.50;;;;;;;;;;5075739;28;20041;-75
2023/04/19 02:51:34;;;;;;;14.27;9.63;;;;;;;;;;5085212;28;20123;-75
2023/04/19 02:54:00;;;;;;;12.00;8.52;;;;;;;;;;5077352;28;20036;-74
2023/04/19 02:56:26;;;;;;;12.73;8.20;;;;;;;;;;5095551;28;20109;-75
2023/04/19 02:58:53;;;;;;;13.73;8.43;;;;;;;;;;5082198;28;20048;-75
2023/04/19 03:01:20;;;;;;;14.75;8.75;;;;;;;;;;5082402;28;20135;-75
2023/04/19 03:03:46;;;;;;;12.68;8.25;;;;;;;;;;5095177;28;20044;-75
2023/04/19 03:06:12;;;;;;;13.23;7.82;;;;;;;;;;5095453;28;20042;-75
2023/04/19 03:08:38;;;;;;;11.93;7.85;;;;;;;;;;5095481;28;20089;-74
2023/04/19 03:11:05;;;;;;;11.10;7.40;;;;;;;;;;5094858;28;20036;-75
2023/04/19 03:13:31;;;;;;;11.30;7.65;;;;;;;;;;5094386;28;20094;-79
2023/04/19 03:15:57;;;;;;;11.77;7.35;;;;;;;;;;5094491;28;20081;-75
2023/04/19 03:18:23;;;;;;;11.80;8.18;;;;;;;;;;5095197;28;20087;-75
2023/04/19 03:20:49;;;;;;;11.35;7.70;;;;;;;;;;5094504;28;20146;-75
2023/04/19 03:23:15;;;;;;;11.05;7.22;;;;;;;;;;5081878;28;20067;-75
2023/04/19 03:25:41;;;;;;;11.48;7.22;;;;;;;;;;5075257;28;20576;-75
2023/04/19 03:28:07;;;;;;;11.93;7.90;;;;;;;;;;5094120;28;20047;-75
2023/04/19 03:30:33;;;;;;;11.32;7.88;;;;;;;;;;5094783;28;20382;-75
2023/04/19 03:32:59;;;;;;;10.48;7.93;;;;;;;;;;5089017;28;20530;-75
2023/04/19 03:35:25;;;;;;;11.80;7.97;;;;;;;;;;5074710;28;20486;-75
2023/04/19 03:37:52;;;;;;;12.15;7.72;;;;;;;;;;5092281;28;20044;-74
2023/04/19 03:40:18;;;;;;;11.40;7.88;;;;;;;;;;5095035;28;20044;-74
2023/04/19 03:42:44;;;;;;;10.07;7.57;;;;;;;;;;5094065;28;20121;-74
2023/04/19 03:45:10;;;;;;;11.45;8.15;;;;;;;;;;5071074;28;20047;-75
2023/04/19 03:47:36;;;;;;;9.95;7.72;;;;;;;;;;5089639;28;20063;-75
2023/04/19 03:50:02;;;;;;;9.60;7.22;;;;;;;;;;5093312;28;20490;-75
2023/04/19 03:52:28;;;;;;;10.93;7.53;;;;;;;;;;5094212;28;20036;-75
2023/04/19 03:54:54;;;;;;;11.48;7.53;;;;;;;;;;5094603;28;20043;-74
2023/04/19 03:57:21;;;;;;;13.48;7.95;;;;;;;;;;5094790;28;20071;-73
2023/04/19 03:59:47;;;;;;;11.63;7.60;;;;;;;;;;5094112;28;20394;-73
2023/04/19 04:02:13;;;;;;;11.90;7.90;;;;;;;;;;5094343;28;20040;-74
2023/04/19 04:04:39;;;;;;;11.43;7.57;;;;;;;;;;5094459;28;20113;-74
2023/04/19 04:07:05;;;;;;;12.15;7.90;;;;;;;;;;5092195;28;20040;-74
2023/04/19 04:09:31;;;;;;;10.32;7.45;;;;;;;;;;5094271;28;20042;-74
2023/04/19 04:11:57;;;;;;;14.23;8.23;;;;;;;;;;5092997;28;20115;-74
2023/04/19 04:14:23;;;;;;;10.43;7.70;;;;;;;;;;5072800;28;20484;-74
2023/04/19 04:16:49;;;;;;;12.65;7.70;;;;;;;;;;5080970;28;20040;-74
2023/04/19 04:19:15;;;;;;;12.00;7.88;;;;;;;;;;5093472;28;20490;-74
2023/04/19 04:21:42;;;;;;;10.43;8.23;;;;;;;;;;5080500;28;20468;-73
2023/04/19 04:24:08;;;;;;;11.35;8.10;;;;;;;;;;5094231;28;20047;-74
2023/04/19 04:26:38;;;;;;;10.75;8.00;;;;;;;;;;5092929;28;20063;-74
2023/04/19 04:29:04;;;;;;;10.88;7.80;;;;;;;;;;5093636;28;20394;-74
2023/04/19 04:31:30;;;;;;;13.15;8.68;;;;;;;;;;5094007;28;20036;-75
2023/04/19 04:33:57;;;;;;;9.88;7.30;;;;;;;;;;5093612;28;20478;-74
2023/04/19 04:36:24;;;;;;;9.48;7.20;;;;;;;;;;5093486;28;20040;-74
2023/04/19 04:38:50;;;;;;;12.90;8.10;;;;;;;;;;5094394;28;20070;-74
2023/04/19 04:41:16;;;;;;;10.73;7.55;;;;;;;;;;5083875;28;20044;-74
2023/04/19 04:43:48;;;;;;;12.38;7.60;;;;;;;;;;5094200;28;20488;-74
2023/04/19 04:46:14;;;;;;;9.30;7.20;;;;;;;;;;5079292;28;20056;-74
2023/04/19 04:48:40;;;;;;;11.75;7.13;;;;;;;;;;5093909;28;20105;-74
2023/04/19 04:51:06;;;;;;;10.75;7.82;;;;;;;;;;5074968;28;20040;-74
2023/04/19 04:53:32;;;;;;;11.10;7.13;;;;;;;;;;5092993;28;20460;-75
2023/04/19 04:55:58;;;;;;;8.65;6.60;;;;;;;;;;5093823;28;20043;-75
2023/04/19 04:58:24;;;;;;;10.88;6.93;;;;;;;;;;5093601;28;20044;-74
2023/04/19 05:00:50;;;;;;;9.27;6.40;;;;;;;;;;5093313;28;20048;-73
2023/04/19 05:03:16;;;;;;;9.68;6.72;;;;;;;;;;5093197;28;20497;-73
2023/04/19 05:05:42;;;;;;;11.55;7.00;;;;;;;;;;5090897;28;20052;-73
2023/04/19 05:08:08;;;;;;;8.85;6.03;;;;;;;;;;5088764;28;20048;-74
2023/04/19 05:10:35;;;;;;;9.77;6.45;;;;;;;;;;5066173;28;20485;-74
2023/04/19 05:13:01;;;;;;;9.75;6.15;;;;;;;;;;5093394;28;20044;-75
2023/04/19 05:15:27;;;;;;;7.68;6.05;;;;;;;;;;5091911;28;20055;-75
2023/04/19 05:17:53;;;;;;;8.82;5.97;;;;;;;;;;5093228;28;20052;-75
2023/04/19 05:20:19;;;;;;;9.00;6.05;;;;;;;;;;5090578;28;20051;-75
2023/04/19 05:22:45;;;;;;;8.98;5.63;;;;;;;;;;5088755;28;20055;-75
2023/04/19 05:25:11;;;;;;;8.35;5.70;;;;;;;;;;5055299;28;20045;-75
2023/04/19 05:27:37;;;;;;;8.85;5.70;;;;;;;;;;5087641;28;20048;-74
2023/04/19 05:30:04;;;;;;;9.48;5.55;;;;;;;;;;5092884;28;20490;-74
2023/04/19 05:32:34;;;;;;;9.32;5.60;;;;;;;;;;5071982;28;20055;-75
2023/04/19 05:35:00;;;;;;;7.57;5.90;;;;;;;;;;5091170;28;20036;-75
2023/04/19 05:37:26;;;;;;;9.52;5.45;;;;;;;;;;5095002;28;20047;-75
2023/04/19 05:39:52;;;;;;;7.18;5.50;;;;;;;;;;5078413;28;20527;-75
2023/04/19 05:42:18;;;;;;;8.10;5.63;;;;;;;;;;5081878;28;20120;-75
2023/04/19 05:44:44;;;;;;;8.50;5.20;;;;;;;;;;5078817;28;20098;-75
2023/04/19 05:47:10;;;;;;;7.55;5.15;;;;;;;;;;5095717;28;20108;-75
2023/04/19 05:49:36;;;;;;;7.28;5.32;;;;;;;;;;5096673;28;20044;-75
2023/04/19 05:52:03;;;;;;;9.05;5.32;;;;;;;;;;5094975;28;20044;-74
2023/04/19 05:54:33;;;;;;;7.00;5.40;;;;;;;;;;5083813;28;20183;-75
2023/04/19 05:56:59;;;;;;;8.77;5.38;;;;;;;;;;5061476;28;20104;-75
2023/04/19 05:59:33;;;;;;;7.93;4.70;;;;;;;;;;5080447;28;20056;-74
2023/04/19 06:02:08;;;;;;;7.28;5.40;;;;;;;;;;5080141;28;20040;-74
2023/04/19 06:04:34;;;;;;;7.90;5.65;;;;;;;;;;5096835;28;20051;-74
2023/04/19 06:07:00;;;;;;;8.02;5.22;;;;;;;;;;5092005;28;20046;-74
2023/04/19 06:09:26;;;;;;;7.53;4.70;;;;;;;;;;5096363;28;20118;-74
2023/04/19 06:11:55;;;;;;;7.10;4.57;;;;;;;;;;5096258;28;20123;-74
2023/04/19 06:14:25;;;;;;;5.95;4.60;;;;;;;;;;5094885;28;20440;-74
2023/04/19 06:16:54;;;;;;;7.38;4.38;;;;;;;;;;5096350;28;20093;-74
2023/04/19 06:19:20;;;;;;;6.95;4.90;;;;;;;;;;5096197;28;20040;-74
2023/04/19 06:21:46;;;;;;;6.20;4.47;;;;;;;;;;5095522;28;20052;-74
2023/04/19 06:24:13;;;;;;;7.60;4.90;;;;;;;;;;5084570;28;20052;-74
2023/04/19 06:26:39;;;;;;;5.75;4.10;;;;;;;;;;5075426;28;20434;-74
2023/04/19 06:29:05;;;;;;;6.75;4.20;;;;;;;;;;5089489;28;20491;-74
2023/04/19 06:31:31;;;;;;;5.82;4.30;;;;;;;;;;5074439;28;20052;-74
2023/04/19 06:33:57;;;;;;;7.35;4.65;;;;;;;;;;5079618;28;20040;-74
2023/04/19 06:36:25;;;;;;;6.45;4.85;;;;;;;;;;5075516;28;20044;-74
2023/04/19 06:38:51;;;;;;;7.85;4.65;;;;;;;;;;5090946;28;20047;-74
2023/04/19 06:41:17;;;;;;;6.35;4.40;;;;;;;;;;5095667;28;20040;-74
2023/04/19 06:43:43;;;;;;;5.30;3.75;;;;;;;;;;5095915;28;20044;-74
2023/04/19 06:46:12;;;;;;;4.35;3.80;;;;;;;;;;5079390;28;20062;-74
2023/04/19 06:48:38;;;;;;;10.48;4.60;;;;;;;;;;5094438;28;20047;-74
2023/04/19 06:51:04;;;;;;;6.22;4.03;;;;;;;;;;5095365;28;20056;-74
2023/04/19 06:53:33;;;;;;;4.38;3.22;;;;;;;;;;5090963;28;20520;-74
2023/04/19 06:56:00;;;;;;;5.57;3.50;;;;;;;;;;5092320;28;20043;-75
2023/04/19 06:58:26;;;;;;;4.93;3.50;;;;;;;;;;5095442;28;20079;-76
2023/04/19 07:00:52;;;;;;;5.25;3.53;;;;;;;;;;5094763;28;20429;-75
2023/04/19 07:03:18;;;;;;;5.70;3.70;;;;;;;;;;5085412;28;20043;-75
2023/04/19 07:05:44;;;;;;;5.97;3.83;;;;;;;;;;5079947;28;20040;-75
2023/04/19 07:08:10;;;;;;;4.90;3.42;;;;;;;;;;5090499;28;20040;-75
2023/04/19 07:10:36;;;;;;;6.45;3.50;;;;;;;;;;5086858;28;20040;-75
2023/04/19 07:13:02;;;;;;;5.43;4.50;;;;;;;;;;5092086;28;20478;-75
2023/04/19 07:15:28;;;;;;;5.25;3.75;;;;;;;;;;5094683;28;20377;-74
2023/04/19 07:17:54;;;;;;;6.45;4.10;;;;;;;;;;5094952;28;20076;-75
2023/04/19 07:20:21;;;;;;;4.75;3.58;;;;;;;;;;5094632;28;20135;-75
2023/04/19 07:22:47;;;;;;;6.63;3.60;;;;;;;;;;5094736;28;20440;-75
2023/04/19 07:25:13;;;;;;;5.15;3.50;;;;;;;;;;5093919;28;20195;-76
2023/04/19 07:27:39;;;;;;;6.75;3.50;;;;;;;;;;5094841;28;20162;-75
2023/04/19 07:30:06;;;;;;;6.95;3.33;;;;;;;;;;5076065;28;20071;-75
2023/04/19 07:32:32;;;;;;;5.78;3.33;;;;;;;;;;5076541;28;20050;-75
2023/04/19 07:34:58;;;;;;;5.75;3.65;;;;;;;;;;5094282;28;20478;-75
2023/04/19 07:37:24;;;;;;;3.90;3.00;;;;;;;;;;5094417;28;20044;-75
2023/04/19 07:39:50;;;;;;;3.90;2.90;;;;;;;;;;5077014;28;20049;-75
2023/04/19 07:42:16;;;;;;;4.45;2.88;;;;;;;;;;5075107;28;20570;-75
2023/04/19 07:44:42;;;;;;;4.68;3.17;;;;;;;;;;5075176;28;20083;-75
2023/04/19 07:47:08;;;;;;;4.28;3.13;;;;;;;;;;5074726;28;20047;-75
2023/04/19 07:49:35;;;;;;;3.20;2.70;;;;;;;;;;5086767;28;20051;-75
2023/04/19 07:52:01;;;;;;;3.00;2.30;;;;;;;;;;5094355;28;20047;-76
2023/04/19 07:54:27;;;;;;;3.13;2.67;;;;;;;;;;5094258;28;20119;-75
2023/04/19 07:56:54;;;;;;;3.28;2.20;;;;;;;;;;5093946;28;20059;-75
2023/04/19 07:59:20;;;;;;;3.42;2.50;;;;;;;;;;5094393;28;20546;-76
2023/04/19 08:01:46;;;;;;;3.92;2.80;;;;;;;;;;5094284;28;20044;-76
2023/04/19 08:04:12;;;;;;;3.67;2.70;;;;;;;;;;5094196;28;20122;-76
2023/04/19 08:06:39;;;;;;;3.25;2.47;;;;;;;;;;5084140;28;20068;-76
2023/04/19 08:09:05;;;;;;;3.83;2.53;;;;;;;;;;5085257;28;20505;-79
2023/04/19 08:11:31;;;;;;;3.55;2.35;;;;;;;;;;5083764;28;20507;-75
2023/04/19 08:13:57;;;;;;;6.68;2.72;;;;;;;;;;5084856;28;20466;-75
2023/04/19 08:16:23;;;;;;;4.43;2.42;;;;;;;;;;5093750;28;20052;-75
2023/04/19 08:18:50;;;;;;;4.18;2.60;;;;;;;;;;5094241;28;20050;-75
2023/04/19 08:21:17;;;;;;;3.85;2.55;;;;;;;;;;5093836;28;20501;-75
2023/04/19 08:23:43;;;;;;;4.93;2.83;;;;;;;;;;5090362;28;20062;-75
2023/04/19 08:26:10;;;;;;;3.10;2.47;;;;;;;;;;5080518;28;20047;-75
2023/04/19 08:28:36;;;;;;;3.63;2.88;;;;;;;;;;5084444;28;20039;-75
2023/04/19 08:31:06;;;;;;;4.03;2.85;;;;;;;;;;5093955;28;20116;-75
2023/04/19 08:33:32;;;;;;;3.60;2.70;;;;;;;;;;5093068;28;20465;-75
2023/04/19 08:35:58;;;;;;;4.43;2.83;;;;;;;;;;5093280;28;20048;-75
2023/04/19 08:38:24;;;;;;;5.72;3.13;;;;;;;;;;5096878;28;20040;-75
2023/04/19 08:40:54;;;;;;;3.75;2.97;;;;;;;;;;5092468;28;20052;-75
2023/04/19 08:43:20;;;;;;;3.47;2.83;;;;;;;;;;5078455;28;20479;-75
2023/04/19 08:45:47;;;;;;;4.13;2.78;;;;;;;;;;5093379;28;20063;-75
2023/04/19 08:48:14;;;;;;;4.95;3.10;;;;;;;;;;5076707;28;20520;-75
2023/04/19 08:50:47;;;;;;;5.85;3.05;;;;;;;;;;5092380;28;20461;-76
2023/04/19 08:53:13;;;;;;;7.53;2.90;;;;;;;;;;5093390;28;20048;-76
2023/04/19 08:55:41;;;;;;;3.97;2.83;;;;;;;;;;5091804;28;20082;-75
2023/04/19 08:58:07;;;;;;;4.55;3.10;;;;;;;;;;5075469;28;20119;-74
2023/04/19 09:00:33;;;;;;;4.90;2.95;;;;;;;;;;5094054;28;20137;-76
2023/04/19 09:02:59;;;;;;;4.57;3.33;;;;;;;;;;5094227;28;20044;-76
2023/04/19 09:05:25;;;;;;;5.30;3.10;;;;;;;;;;5086359;28;20044;-75
2023/04/19 09:07:52;;;;;;;4.80;2.92;;;;;;;;;;5087587;28;20056;-75
2023/04/19 09:10:19;;;;;;;4.90;3.10;;;;;;;;;;5095039;28;20045;-75
2023/04/19 09:13:01;;;;;;;4.57;2.60;;;;;;;;;;5078748;28;20048;-75
2023/04/19 09:15:37;;;;;;;3.80;2.88;;;;;;;;;;5097120;28;20448;-74
2023/04/19 09:18:05;;;;;;;3.38;2.97;;;;;;;;;;5097502;28;20109;-76
2023/04/19 09:20:36;;;;;;;3.88;3.10;;;;;;;;;;5097282;28;20452;-75
2023/04/19 09:23:03;;;;;;;5.10;2.72;;;;;;;;;;5096050;28;20523;-77
2023/04/19 09:25:29;;;;;;;3.95;2.78;;;;;;;;;;5082795;28;20044;-76
2023/04/19 09:28:07;;;;;;;5.63;3.00;;;;;;;;;;5076752;28;20037;-75
2023/04/19 09:30:34;;;;;;;4.18;2.88;;;;;;;;;;5077023;28;20139;-75
2023/04/19 09:33:00;;;;;;;5.85;2.90;;;;;;;;;;5093776;28;20047;-75
2023/04/19 09:35:42;;;;;;;4.88;2.90;;;;;;;;;;5093211;28;20037;-75
2023/04/19 09:38:09;;;;;;;5.00;2.90;;;;;;;;;;5085350;28;20097;-75
2023/04/19 09:40:35;;;;;;;4.70;2.95;;;;;;;;;;5089161;28;20066;-75
2023/04/19 09:43:02;;;;;;;5.90;3.10;;;;;;;;;;5084856;28;20047;-75
2023/04/19 09:45:38;;;;;;;4.00;2.80;;;;;;;;;;5095987;28;20548;-75
2023/04/19 09:48:06;;;;;;;3.65;3.03;;;;;;;;;;5079370;28;20093;-75
2023/04/19 09:50:32;;;;;;;6.15;3.25;;;;;;;;;;5078999;28;20045;-75
2023/04/19 09:52:59;;;;;;;5.90;3.00;;;;;;;;;;5076637;28;20133;-75
2023/04/19 09:55:25;;;;;;;6.30;3.55;;;;;;;;;;5089590;28;20044;-75
2023/04/19 09:57:52;;;;;;;4.97;3.20;;;;;;;;;;5082903;28;20531;-75
2023/04/19 10:00:20;;;;;;;5.03;3.45;;;;;;;;;;5084978;28;20074;-75
2023/04/19 10:02:53;;;;;;;7.35;3.33;;;;;;;;;;5076264;28;20049;-75
2023/04/19 10:05:21;;;;;;;4.93;3.17;;;;;;;;;;5086268;28;20115;-76
2023/04/19 10:07:48;;;;;;;5.32;3.38;;;;;;;;;;5079243;28;20128;-75
2023/04/19 10:10:16;;;;;;;5.78;3.35;;;;;;;;;;5091216;28;20040;-76
2023/04/19 10:12:45;;;;;;;5.65;3.15;;;;;;;;;;5095586;28;20482;-78
2023/04/19 10:15:13;;;;;;;6.00;3.33;;;;;;;;;;5096733;28;20047;-77
2023/04/19 10:17:39;;;;;;;7.07;3.00;;;;;;;;;;5095485;28;20050;-77
2023/04/19 10:20:07;;;;;;;9.68;3.30;;;;;;;;;;5096950;28;20062;-77
2023/04/19 10:22:37;;;;;;;5.47;3.03;;;;;;;;;;5096000;28;20410;-78
2023/04/19 10:25:10;;;;;;;4.68;2.90;;;;;;;;;;5095138;28;20052;-77
2023/04/19 10:27:36;;;;;;;5.78;3.00;;;;;;;;;;5096327;28;20044;-77
2023/04/19 10:30:06;;;;;;;5.35;2.75;;;;;;;;;;5096147;28;20096;-76
2023/04/19 10:32:38;;;;;;;4.75;2.65;;;;;;;;;;5078813;28;20048;-75
2023/04/19 10:35:28;;;;;;;4.38;2.50;;;;;;;;;;5095922;28;20048;-75
2023/04/19 10:38:11;;;;;;;4.53;2.70;;;;;;;;;;5072357;28;20052;-76
2023/04/19 10:40:59;;;;;;;5.03;2.60;;;;;;;;;;5091396;28;20055;-76
2023/04/19 10:43:26;;;;;;;3.85;2.33;;;;;;;;;;5092053;28;20147;-76
2023/04/19 10:45:52;;;;;;;6.93;2.35;;;;;;;;;;5093616;28;20040;-76
2023/04/19 10:48:32;;;;;;;3.25;2.28;;;;;;;;;;5079845;28;20452;-76
2023/04/19 10:50:58;;;;;;;2.97;2.03;;;;;;;;;;5092339;28;20046;-76
2023/04/19 10:53:43;;;;;;;5.32;2.45;;;;;;;;;;5089797;28;20032;-76
2023/04/19 10:56:09;;;;;;;4.60;2.58;;;;;;;;;;5084935;28;20075;-76
2023/04/19 10:58:54;;;;;;;4.50;2.20;;;;;;;;;;5095394;28;20036;-76
2023/04/19 11:01:38;;;;;;;3.90;2.55;;;;;;;;;;5095376;28;20088;-76
2023/04/19 11:04:07;;;;;;;4.13;2.22;;;;;;;;;;5078208;28;20466;-75
2023/04/19 11:06:33;;;;;;;5.60;2.60;;;;;;;;;;5094862;28;20061;-75
2023/04/19 11:09:01;;;;;;;6.05;2.60;;;;;;;;;;5094757;28;20052;-75
2023/04/19 11:11:28;;;;;;;4.60;2.40;;;;;;;;;;5076715;28;20060;-75
2023/04/19 11:13:57;;;;;;;5.20;2.55;;;;;;;;;;5095108;28;20051;-75
2023/04/19 11:16:24;;;;;;;4.50;2.17;;;;;;;;;;5095227;28;20565;-76
2023/04/19 11:18:50;;;;;;;4.78;2.40;;;;;;;;;;5095213;28;20048;-76
2023/04/19 11:21:20;;;;;;;4.60;2.03;;;;;;;;;;5094671;28;20074;-76
2023/04/19 11:23:48;;;;;;;5.10;2.33;;;;;;;;;;5088125;28;20032;-76
2023/04/19 11:26:14;;;;;;;3.72;2.42;;;;;;;;;;5090969;28;20152;-76
2023/04/19 11:28:40;;;;;;;3.00;2.22;;;;;;;;;;5074462;28;20044;-75
2023/04/19 11:31:06;;;;;;;3.70;2.55;;;;;;;;;;5093112;28;20402;-76
2023/04/19 11:33:33;;;;;;;4.80;2.40;;;;;;;;;;5094496;28;20076;-75
2023/04/19 11:35:59;;;;;;;3.60;2.33;;;;;;;;;;5094212;28;20062;-76
2023/04/19 11:38:28;;;;;;;3.70;2.17;;;;;;;;;;5094733;28;20093;-75
2023/04/19 11:41:00;;;;;;;3.10;2.15;;;;;;;;;;5094751;28;20062;-75
2023/04/19 11:43:36;;;;;;;4.90;2.10;;;;;;;;;;5090098;28;20055;-75
2023/04/19 11:46:09;;;;;;;4.78;2.30;;;;;;;;;;5092163;28;20044;-75
2023/04/19 11:48:35;;;;;;;5.07;2.50;;;;;;;;;;5079001;28;20150;-75
2023/04/19 11:51:02;;;;;;;4.68;2.20;;;;;;;;;;5096730;28;20040;-76
2023/04/19 11:53:28;;;;;;;4.90;2.30;;;;;;;;;;5098295;28;20126;-76
2023/04/19 11:55:56;;;;;;;4.70;2.50;;;;;;;;;;5097806;28;20055;-76
2023/04/19 11:58:34;;;;;;;6.53;3.08;;;;;;;;;;5094125;28;20093;-76
2023/04/19 12:01:05;;;;;;;6.13;2.92;;;;;;;;;;5086218;28;20475;-76
2023/04/19 12:03:32;;;;;;;5.20;2.88;;;;;;;;;;5077782;28;20441;-75
2023/04/19 12:06:28;;;;;;;;;;;;;;;;;;;;;
2023/04/19 12:08:58;;;;;;;6.50;3.30;;;;;;;;;;5069929;28;20048;-76
2023/04/19 12:11:25;;;;;;;4.32;3.13;;;;;;;;;;5089723;28;21905;-76
2023/04/19 12:14:13;;;;;;;7.88;3.55;;;;;;;;;;5073408;28;20124;-76
2023/04/19 12:16:40;;;;;;;4.97;3.40;;;;;;;;;;5078438;28;20071;-76
2023/04/19 12:19:17;;;;;;;5.10;3.03;;;;;;;;;;5073713;28;20032;-76
2023/04/19 12:21:44;;;;;;;7.85;4.20;;;;;;;;;;5074030;28;20511;-76
2023/04/19 12:24:11;;;;;;;8.15;3.75;;;;;;;;;;5079279;28;20047;-75
2023/04/19 12:26:55;;;;;;;7.43;3.63;;;;;;;;;;5093851;28;20043;-76
2023/04/19 12:29:21;;;;;;;8.20;3.90;;;;;;;;;;5088650;28;20052;-75
2023/04/19 12:31:47;;;;;;;7.40;4.03;;;;;;;;;;5090334;28;20040;-75
2023/04/19 12:34:16;;;;;;;5.97;3.70;;;;;;;;;;5079463;28;20036;-75
2023/04/19 12:36:42;;;;;;;6.28;4.13;;;;;;;;;;5093207;28;20051;-75
2023/04/19 12:39:08;;;;;;;7.35;4.18;;;;;;;;;;5080134;28;20532;-76
2023/04/19 12:41:34;;;;;;;5.97;4.38;;;;;;;;;;5078200;28;20462;-77
2023/04/19 12:44:00;;;;;;;5.68;4.32;;;;;;;;;;5093941;28;20512;-76
2023/04/19 12:46:26;;;;;;;8.75;4.50;;;;;;;;;;5090809;28;20097;-77
2023/04/19 12:48:52;;;;;;;8.23;4.25;;;;;;;;;;5070607;28;20048;-76
2023/04/19 12:51:19;;;;;;;9.82;5.18;;;;;;;;;;5083158;28;20521;-76
2023/04/19 12:53:48;;;;;;;9.95;4.10;;;;;;;;;;5073315;28;20059;-77
2023/04/19 12:56:35;;;;;;;7.05;4.28;;;;;;;;;;5073386;28;20049;-77
2023/04/19 12:59:01;;;;;;;7.78;3.92;;;;;;;;;;5073122;28;20505;-77
2023/04/19 13:01:27;;;;;;;6.78;3.95;;;;;;;;;;5073966;28;20084;-77
2023/04/19 13:03:53;;;;;;;8.98;4.30;;;;;;;;;;5073356;28;20129;-76
2023/04/19 13:06:19;;;;;;;9.88;4.90;;;;;;;;;;5073249;28;20049;-76
2023/04/19 13:08:45;;;;;;;10.18;4.53;;;;;;;;;;5072688;28;20101;-77
2023/04/19 13:11:11;;;;;;;6.90;4.63;;;;;;;;;;5077933;28;20040;-77
2023/04/19 13:13:37;;;;;;;7.38;4.90;;;;;;;;;;5094310;28;20055;-77
2023/04/19 13:16:05;;;;;;;8.02;4.68;;;;;;;;;;5087283;28;20040;-79
2023/04/19 13:18:31;;;;;;;7.30;4.88;;;;;;;;;;5085461;28;20113;-77
2023/04/19 13:20:57;;;;;;;7.68;4.20;;;;;;;;;;5113527;28;20052;-77
2023/04/19 13:23:23;;;;;;;8.57;4.70;;;;;;;;;;5103725;28;20048;-77
2023/04/19 13:25:49;;;;;;;6.35;4.43;;;;;;;;;;5093768;28;20036;-76
2023/04/19 13:28:15;;;;;;;7.28;4.60;;;;;;;;;;5093295;28;20054;-76
2023/04/19 13:30:44;;;;;;;7.75;4.88;;;;;;;;;;5093405;28;20414;-76
2023/04/19 13:33:10;;;;;;;8.80;4.57;;;;;;;;;;5093219;28;20040;-77
2023/04/19 13:35:36;;;;;;;7.68;4.95;;;;;;;;;;5093079;28;20089;-76
2023/04/19 13:38:02;;;;;;;8.30;4.97;;;;;;;;;;5093069;28;20048;-76
2023/04/19 13:40:31;;;;;;;7.63;4.57;;;;;;;;;;5092437;28;20044;-76
2023/04/19 13:42:57;;;;;;;7.60;4.85;;;;;;;;;;5093290;28;20054;-77
2023/04/19 13:45:24;;;;;;;8.55;4.97;;;;;;;;;;5093371;28;20166;-76
2023/04/19 13:47:50;;;;;;;8.15;5.10;;;;;;;;;;5078664;28;20101;-75
2023/04/19 13:50:16;;;;;;;6.00;4.53;;;;;;;;;;5095708;28;20512;-75
2023/04/19 13:52:42;;;;;;;6.70;4.82;;;;;;;;;;5096277;28;20574;-76
2023/04/19 13:55:08;;;;;;;8.55;4.75;;;;;;;;;;5095916;28;20410;-76
2023/04/19 13:57:35;;;;;;;7.13;5.68;;;;;;;;;;5096800;28;20152;-76
2023/04/19 14:00:01;;;;;;;6.90;4.78;;;;;;;;;;5096468;28;20087;-76
2023/04/19 14:02:27;;;;;;;7.43;4.85;;;;;;;;;;5097102;28;20036;-82
2023/04/19 14:04:53;;;;;;;8.52;5.15;;;;;;;;;;5085896;28;20051;-76
2023/04/19 14:07:20;;;;;;;7.47;4.82;;;;;;;;;;5076139;28;20045;-76
2023/04/19 14:09:46;;;;;;;7.03;4.50;;;;;;;;;;5083964;28;20048;-75
2023/04/19 14:12:12;;;;;;;7.10;4.95;;;;;;;;;;5093347;28;20047;-75
2023/04/19 14:14:38;;;;;;;7.32;4.60;;;;;;;;;;5088319;28;20165;-75
2023/04/19 14:17:04;;;;;;;7.93;4.78;;;;;;;;;;5078011;28;20045;-76
2023/04/19 14:19:30;;;;;;;10.10;4.82;;;;;;;;;;5078366;28;20049;-77
2023/04/19 14:21:56;;;;;;;6.93;4.90;;;;;;;;;;5096079;28;20134;-78
2023/04/19 14:24:22;;;;;;;8.20;5.45;;;;;;;;;;5096439;28;20174;-78
2023/04/19 14:26:48;;;;;;;8.88;5.15;;;;;;;;;;5075839;28;20119;-77
2023/04/19 14:29:14;;;;;;;9.23;4.28;;;;;;;;;;5075699;28;20122;-76
2023/04/19 14:31:40;;;;;;;5.13;4.30;;;;;;;;;;5076001;28;20090;-76
2023/04/19 14:34:10;;;;;;;7.53;4.38;;;;;;;;;;5080549;28;20045;-77
2023/04/19 14:36:36;;;;;;;6.07;3.90;;;;;;;;;;5077896;28;20043;-77
2023/04/19 14:39:02;;;;;;;5.53;3.85;;;;;;;;;;5096228;28;20048;-77